Hyde Park, Utah
Current Conditions -  °F | °C
As of 7:51 AM on Monday 24 Nov 2014 (Local Time) from KLGU Reporting Station
Overcast Overcast  
Wind Chill: 29°   Ceiling: 4200
Heat Index: 33°   Visibility: 10mi
Dew Point: 23°   Wind: 5mph
Humidity: 66%   Direction: NA
Pressure: 30.25"   Gusts: NA
Location:  41.8°N, 111.82°W
Report Text: KLGU 241451Z AUTO VRB04KT 10SM OVC042 01/M05 A3025 RMK AO2 SLP255 T00061050 53026
Loading
Personal Weather Stations






























Interactive Weather Map New forecast layout! Learn more

10-Day Weather Forecast

Advertisements
Track Severe Weather on mobile